createdAt,value
2018-07-17T00:00:28.067Z,4.90
2018-07-17T00:02:56.593Z,6.50
2018-07-17T00:05:25.108Z,6.30
2018-07-17T00:07:53.609Z,5.90
2018-07-17T00:10:22.139Z,4.53
2018-07-17T00:12:50.405Z,5.70
2018-07-17T00:15:19.050Z,7.77
2018-07-17T00:17:47.483Z,7.83
2018-07-17T00:20:15.964Z,6.23
2018-07-17T00:22:44.393Z,5.50
2018-07-17T00:25:13.445Z,5.20
2018-07-17T00:27:41.989Z,5.37
2018-07-17T00:30:10.577Z,5.43
2018-07-17T00:32:40.027Z,4.00
2018-07-17T00:35:09.591Z,6.10
2018-07-17T00:37:38.178Z,5.50
2018-07-17T00:40:06.675Z,4.67
2018-07-17T00:42:35.144Z,4.23
2018-07-17T00:45:03.766Z,4.87
2018-07-17T00:47:32.324Z,7.13
2018-07-17T00:50:00.872Z,5.70
2018-07-17T00:52:29.504Z,8.43
2018-07-17T00:54:57.990Z,5.37
2018-07-17T00:57:26.486Z,7.30
2018-07-17T00:59:55.063Z,5.97
2018-07-17T01:02:28.780Z,4.77
2018-07-17T01:05:02.662Z,6.97
2018-07-17T01:07:36.480Z,5.27
2018-07-17T01:10:10.252Z,5.13
2018-07-17T01:12:37.687Z,5.33
2018-07-17T01:15:10.580Z,4.80
2018-07-17T01:17:39.124Z,4.70
2018-07-17T01:20:07.838Z,5.97
2018-07-17T01:22:36.379Z,5.20
2018-07-17T01:25:04.900Z,5.83
2018-07-17T01:27:33.474Z,5.80
2018-07-17T01:30:01.960Z,5.13
2018-07-17T01:32:30.548Z,10.00
2018-07-17T01:34:59.001Z,6.97
2018-07-17T01:37:27.519Z,6.80
2018-07-17T01:39:56.004Z,7.50
2018-07-17T01:42:24.797Z,6.17
2018-07-17T01:44:53.346Z,7.87
2018-07-17T01:47:21.872Z,5.07
2018-07-17T01:49:50.355Z,5.10
2018-07-17T01:52:18.943Z,5.53
2018-07-17T01:54:47.531Z,4.70
2018-07-17T01:57:16.034Z,6.37
2018-07-17T01:59:44.483Z,6.60
2018-07-17T02:02:12.988Z,6.83
2018-07-17T02:04:41.490Z,6.03
2018-07-17T02:07:09.970Z,5.53
2018-07-17T02:09:38.443Z,5.67
2018-07-17T02:12:07.034Z,6.10
2018-07-17T02:14:35.510Z,4.67
2018-07-17T02:17:04.006Z,5.27
2018-07-17T02:19:32.596Z,4.83
2018-07-17T02:22:01.155Z,5.53
2018-07-17T02:24:29.624Z,6.40
2018-07-17T02:26:58.220Z,5.47
2018-07-17T02:29:26.740Z,6.10
2018-07-17T02:31:55.168Z,7.37
2018-07-17T02:34:23.678Z,7.20
2018-07-17T02:36:52.148Z,7.80
2018-07-17T02:39:20.638Z,6.20
2018-07-17T02:41:49.120Z,7.57
2018-07-17T02:44:17.656Z,7.03
2018-07-17T02:46:46.144Z,7.20
2018-07-17T02:49:14.651Z,7.30
2018-07-17T02:51:43.393Z,7.43
2018-07-17T02:54:11.992Z,7.37
2018-07-17T02:56:40.498Z,5.30
2018-07-17T02:59:09.181Z,6.00
2018-07-17T03:01:37.657Z,7.60
2018-07-17T03:04:06.536Z,6.23
2018-07-17T03:06:35.051Z,6.03
2018-07-17T03:09:03.686Z,7.77
2018-07-17T03:11:32.225Z,7.70
2018-07-17T03:14:00.729Z,10.27
2018-07-17T03:16:29.399Z,5.73
2018-07-17T03:18:57.957Z,6.17
2018-07-17T03:21:32.804Z,5.63
2018-07-17T03:24:01.271Z,7.30
2018-07-17T03:26:29.757Z,8.20
2018-07-17T03:28:57.926Z,6.37
2018-07-17T03:31:26.415Z,5.60
2018-07-17T03:33:54.879Z,5.63
2018-07-17T03:36:23.403Z,6.50
2018-07-17T03:38:51.870Z,6.70
2018-07-17T03:41:20.498Z,6.00
2018-07-17T03:43:49.087Z,5.77
2018-07-17T03:46:18.976Z,5.87
2018-07-17T03:48:47.128Z,6.23
2018-07-17T03:51:15.638Z,7.40
2018-07-17T03:53:44.111Z,6.80
2018-07-17T03:56:12.626Z,7.83
2018-07-17T03:58:41.112Z,6.40
2018-07-17T04:01:09.791Z,6.30
2018-07-17T04:03:38.379Z,7.80
2018-07-17T04:06:06.865Z,7.37
2018-07-17T04:08:36.124Z,6.70
2018-07-17T04:11:04.679Z,6.33
2018-07-17T04:13:33.251Z,7.97
2018-07-17T04:16:01.818Z,5.80
2018-07-17T04:18:30.392Z,6.37
2018-07-17T04:20:58.898Z,5.97
2018-07-17T04:23:27.434Z,7.10
2018-07-17T04:25:56.639Z,5.53
2018-07-17T04:28:25.185Z,5.83
2018-07-17T04:30:53.386Z,5.10
2018-07-17T04:33:22.106Z,6.60
2018-07-17T04:35:50.758Z,5.57
2018-07-17T04:38:19.415Z,10.20
2018-07-17T04:40:48.054Z,4.57
2018-07-17T04:43:16.519Z,6.03
2018-07-17T04:45:45.018Z,9.10
2018-07-17T04:48:13.563Z,5.73
2018-07-17T04:50:41.755Z,5.63
2018-07-17T04:53:10.265Z,6.83
2018-07-17T04:55:38.778Z,6.10
2018-07-17T04:58:07.340Z,6.83
2018-07-17T05:00:35.914Z,5.77
2018-07-17T05:03:05.338Z,5.70
2018-07-17T05:05:33.905Z,5.50
2018-07-17T05:08:02.328Z,8.03
2018-07-17T05:10:30.946Z,7.80
2018-07-17T05:12:59.400Z,7.77
2018-07-17T05:15:27.893Z,5.30
2018-07-17T05:17:56.452Z,6.73
2018-07-17T05:20:24.938Z,5.47
2018-07-17T05:22:53.544Z,5.53
2018-07-17T05:25:22.213Z,7.10
2018-07-17T05:27:50.785Z,5.17
2018-07-17T05:30:19.248Z,5.87
2018-07-17T05:32:47.825Z,9.60
2018-07-17T05:35:16.585Z,5.30
2018-07-17T05:37:45.156Z,5.10
2018-07-17T05:40:13.794Z,5.43
2018-07-17T05:42:42.262Z,8.30
2018-07-17T05:45:10.785Z,5.77
2018-07-17T05:47:41.758Z,5.83
2018-07-17T05:50:11.842Z,5.83
2018-07-17T05:52:40.662Z,17.53
2018-07-17T05:55:09.324Z,8.37
2018-07-17T05:57:37.824Z,10.07
2018-07-17T06:00:07.592Z,10.90
2018-07-17T06:02:36.251Z,8.10
2018-07-17T06:05:05.152Z,14.70
2018-07-17T06:07:33.630Z,12.00
2018-07-17T06:10:02.150Z,12.80
2018-07-17T06:12:30.706Z,7.80
2018-07-17T06:14:59.297Z,7.93
2018-07-17T06:17:28.499Z,6.77
2018-07-17T06:19:57.034Z,8.03
2018-07-17T06:22:25.466Z,7.00
2018-07-17T06:24:53.991Z,8.00
2018-07-17T06:27:22.548Z,7.53
2018-07-17T06:29:50.984Z,7.00
2018-07-17T06:32:19.720Z,7.33
2018-07-17T06:34:48.175Z,7.50
2018-07-17T06:37:16.792Z,10.63
2018-07-17T06:39:45.378Z,7.90
2018-07-17T06:42:13.888Z,12.20
2018-07-17T06:44:42.427Z,8.23
2018-07-17T06:47:10.903Z,10.70
2018-07-17T06:49:39.498Z,6.63
2018-07-17T06:52:08.023Z,7.13
2018-07-17T06:54:36.703Z,11.10
2018-07-17T06:57:05.292Z,12.73
2018-07-17T06:59:33.795Z,9.57
2018-07-17T07:02:02.245Z,7.20
2018-07-17T07:04:30.853Z,10.90
2018-07-17T07:06:59.512Z,6.80
2018-07-17T07:09:28.194Z,11.03
2018-07-17T07:11:56.795Z,12.83
2018-07-17T07:14:24.942Z,7.70
2018-07-17T07:16:53.395Z,7.90
2018-07-17T07:19:21.905Z,8.23
2018-07-17T07:21:50.517Z,8.30
2018-07-17T07:24:19.042Z,6.40
2018-07-17T07:26:47.500Z,13.20
2018-07-17T07:29:16.046Z,9.10
2018-07-17T07:31:44.578Z,9.57
2018-07-17T07:34:13.191Z,8.87
2018-07-17T07:36:41.777Z,10.20
2018-07-17T07:39:11.147Z,7.57
2018-07-17T07:41:39.771Z,10.73
2018-07-17T07:44:08.463Z,7.60
2018-07-17T07:46:36.998Z,6.40
2018-07-17T07:49:06.336Z,6.53
2018-07-17T07:51:34.871Z,15.50
2018-07-17T07:54:03.503Z,7.80
2018-07-17T07:56:32.118Z,5.93
2018-07-17T07:59:00.712Z,7.90
2018-07-17T08:01:29.191Z,7.30
2018-07-17T08:03:57.785Z,6.90
2018-07-17T08:06:26.439Z,7.27
2018-07-17T08:08:54.876Z,6.37
2018-07-17T08:11:23.353Z,8.57
2018-07-17T08:13:51.887Z,8.73
2018-07-17T08:16:20.581Z,6.27
2018-07-17T08:18:49.103Z,7.50
2018-07-17T08:21:17.800Z,8.77
2018-07-17T08:23:46.380Z,7.23
2018-07-17T08:26:14.864Z,7.20
2018-07-17T08:28:43.444Z,5.87
2018-07-17T08:31:11.939Z,10.03
2018-07-17T08:33:40.439Z,8.70
2018-07-17T08:36:09.461Z,6.70
2018-07-17T08:38:37.979Z,8.30
2018-07-17T08:41:06.666Z,10.30
2018-07-17T08:43:35.352Z,7.63
2018-07-17T08:46:03.844Z,8.13
2018-07-17T08:48:32.353Z,6.93
2018-07-17T08:51:00.906Z,8.10
2018-07-17T08:53:29.442Z,10.43
2018-07-17T08:55:57.903Z,9.83
2018-07-17T08:58:26.064Z,10.30
2018-07-17T09:00:54.665Z,8.60
2018-07-17T09:03:23.139Z,9.73
2018-07-17T09:05:51.676Z,11.30
2018-07-17T09:08:20.213Z,9.30
2018-07-17T09:10:48.736Z,7.57
2018-07-17T09:13:17.320Z,8.43
2018-07-17T09:15:45.908Z,13.03
2018-07-17T09:18:14.398Z,9.53
2018-07-17T09:20:42.876Z,9.60
2018-07-17T09:23:11.378Z,9.07
2018-07-17T09:25:40.059Z,10.63
2018-07-17T09:28:08.582Z,8.47
2018-07-17T09:30:42.564Z,9.20
2018-07-17T09:33:11.072Z,7.13
2018-07-17T09:35:39.615Z,15.03
2018-07-17T09:38:08.929Z,6.30
2018-07-17T09:40:37.720Z,8.60
2018-07-17T09:43:06.609Z,6.83
2018-07-17T09:45:35.207Z,6.67
2018-07-17T09:48:03.798Z,11.93
2018-07-17T09:50:32.277Z,7.53
2018-07-17T09:53:00.811Z,11.70
2018-07-17T09:55:29.356Z,8.80
2018-07-17T09:57:57.944Z,8.00
2018-07-17T10:00:31.650Z,12.50
2018-07-17T10:03:00.147Z,16.30
2018-07-17T10:05:28.726Z,7.60
2018-07-17T10:07:57.308Z,6.70
2018-07-17T10:10:25.897Z,5.70
2018-07-17T10:12:54.574Z,5.40
2018-07-17T10:15:23.060Z,6.83
2018-07-17T10:17:51.562Z,8.33
2018-07-17T10:20:20.074Z,9.50
2018-07-17T10:22:48.527Z,6.37
2018-07-17T10:25:17.020Z,4.77
2018-07-17T10:27:45.504Z,5.23
2018-07-17T10:30:14.040Z,6.73
2018-07-17T10:32:42.547Z,8.30
2018-07-17T10:35:11.364Z,4.73
2018-07-17T10:37:39.953Z,5.27
2018-07-17T10:40:08.746Z,6.43
2018-07-17T10:42:37.564Z,5.40
2018-07-17T10:45:06.437Z,6.33
2018-07-17T10:47:35.015Z,7.57
2018-07-17T10:50:03.491Z,6.70
2018-07-17T10:52:32.097Z,7.50
2018-07-17T10:55:00.655Z,4.43
2018-07-17T10:57:29.199Z,5.83
2018-07-17T10:59:57.692Z,3.80
2018-07-17T11:02:26.189Z,4.50
2018-07-17T11:04:54.673Z,5.03
2018-07-17T11:07:23.133Z,4.60
2018-07-17T11:09:52.240Z,5.90
2018-07-17T11:12:20.807Z,4.43
2018-07-17T11:14:49.287Z,7.13
2018-07-17T11:17:17.796Z,6.73
2018-07-17T11:19:46.293Z,6.90
2018-07-17T11:22:15.078Z,6.03
2018-07-17T11:24:43.581Z,5.20
2018-07-17T11:27:12.099Z,6.03
2018-07-17T11:29:40.571Z,4.37
2018-07-17T11:32:09.407Z,7.43
2018-07-17T11:34:38.117Z,5.37
2018-07-17T11:37:06.656Z,9.63
2018-07-17T11:39:35.136Z,3.60
2018-07-17T11:42:03.657Z,4.97
2018-07-17T11:44:32.164Z,5.80
2018-07-17T11:47:00.600Z,5.70
2018-07-17T11:49:29.108Z,4.70
2018-07-17T11:51:57.580Z,5.17
2018-07-17T11:54:26.041Z,6.70
2018-07-17T11:56:54.563Z,4.03
2018-07-17T11:59:23.432Z,3.10
2018-07-17T12:01:51.842Z,3.40
2018-07-17T12:04:20.428Z,3.87
2018-07-17T12:09:22.012Z,6.57
2018-07-17T12:11:50.668Z,4.10
2018-07-17T12:14:19.281Z,4.93
2018-07-17T12:16:47.787Z,3.13
2018-07-17T12:19:16.405Z,3.90
2018-07-17T12:21:44.947Z,2.53
2018-07-17T12:24:13.420Z,3.47
2018-07-17T12:26:42.019Z,3.40
2018-07-17T12:29:10.557Z,3.23
2018-07-17T12:31:39.073Z,3.70
2018-07-17T12:34:07.352Z,4.83
2018-07-17T12:36:35.860Z,5.20
2018-07-17T12:39:05.557Z,2.90
2018-07-17T12:41:34.147Z,4.50
2018-07-17T12:44:02.652Z,6.23
2018-07-17T12:46:31.158Z,3.90
2018-07-17T12:48:59.694Z,2.90
2018-07-17T12:51:28.264Z,4.50
2018-07-17T12:56:22.075Z,2.70
2018-07-17T12:58:51.717Z,2.53
2018-07-17T13:01:20.198Z,2.57
2018-07-17T13:03:48.771Z,4.33
2018-07-17T13:06:17.252Z,2.20
2018-07-17T13:08:46.061Z,4.90
2018-07-17T13:11:14.618Z,2.53
2018-07-17T13:13:43.185Z,2.40
2018-07-17T13:16:11.649Z,2.10
2018-07-17T13:18:40.524Z,2.20
2018-07-17T13:21:08.979Z,4.23
2018-07-17T13:23:37.560Z,2.77
2018-07-17T13:26:06.038Z,2.00
2018-07-17T13:28:34.568Z,5.00
2018-07-17T13:31:03.053Z,2.83
2018-07-17T13:33:31.584Z,2.13
2018-07-17T13:36:00.053Z,2.20
2018-07-17T13:38:28.601Z,3.10
2018-07-17T13:40:57.204Z,3.00
2018-07-17T13:43:25.766Z,3.17
2018-07-17T13:45:54.479Z,2.00
2018-07-17T13:48:22.981Z,2.03
2018-07-17T13:50:51.532Z,2.33
2018-07-17T13:53:20.041Z,4.07
2018-07-17T13:55:48.592Z,2.63
2018-07-17T13:58:17.083Z,8.10
2018-07-17T14:00:45.602Z,2.80
2018-07-17T14:03:14.110Z,2.03
2018-07-17T14:05:42.585Z,2.33
2018-07-17T14:08:11.174Z,2.27
2018-07-17T14:10:39.843Z,2.77
2018-07-17T14:13:08.411Z,2.10
2018-07-17T14:15:37.126Z,1.90
2018-07-17T14:18:05.916Z,3.87
2018-07-17T14:20:34.390Z,3.60
2018-07-17T14:23:03.348Z,2.63
2018-07-17T14:25:31.858Z,4.23
2018-07-17T14:28:00.060Z,5.80
2018-07-17T14:30:28.690Z,4.47
2018-07-17T14:32:57.543Z,2.47
2018-07-17T14:35:26.034Z,2.87
2018-07-17T14:37:54.558Z,2.93
2018-07-17T14:40:23.071Z,7.33
2018-07-17T14:42:51.695Z,3.70
2018-07-17T14:45:20.213Z,6.17
2018-07-17T14:47:48.830Z,4.73
2018-07-17T14:50:17.563Z,3.87
2018-07-17T14:52:54.805Z,6.43
2018-07-17T14:55:23.541Z,8.17
2018-07-17T14:57:52.125Z,3.93
2018-07-17T15:00:20.764Z,5.80
2018-07-17T15:02:49.236Z,7.57
2018-07-17T15:05:17.734Z,4.83
2018-07-17T15:07:46.275Z,7.57
2018-07-17T15:10:14.962Z,4.80
2018-07-17T15:12:43.444Z,3.50
2018-07-17T15:15:12.037Z,4.90
2018-07-17T15:17:40.603Z,3.30
2018-07-17T15:20:09.150Z,3.80
2018-07-17T15:22:37.659Z,2.83
2018-07-17T15:25:06.900Z,3.83
2018-07-17T15:27:35.376Z,3.03
2018-07-17T15:30:04.182Z,3.73
2018-07-17T15:32:32.838Z,2.77
2018-07-17T15:35:01.411Z,5.07
2018-07-17T15:37:30.015Z,7.00
2018-07-17T15:39:58.295Z,2.90
2018-07-17T15:42:26.442Z,3.07
2018-07-17T15:44:54.978Z,3.63
2018-07-17T15:47:23.484Z,2.80
2018-07-17T15:49:52.168Z,3.20
2018-07-17T15:52:21.368Z,4.83
2018-07-17T15:54:49.878Z,2.83
2018-07-17T15:57:18.359Z,2.50
2018-07-17T15:59:47.075Z,2.37
2018-07-17T16:02:15.570Z,3.07
2018-07-17T16:04:44.208Z,2.80
2018-07-17T16:07:13.053Z,4.20
2018-07-17T16:09:41.790Z,5.50
2018-07-17T16:12:10.451Z,2.90
2018-07-17T16:14:39.059Z,4.50
2018-07-17T16:17:07.788Z,3.33
2018-07-17T16:19:36.460Z,3.57
2018-07-17T16:22:05.286Z,3.60
2018-07-17T16:24:34.039Z,2.27
2018-07-17T16:27:03.346Z,4.00
2018-07-17T16:29:31.943Z,2.60
2018-07-17T16:32:00.477Z,2.80
2018-07-17T16:34:29.204Z,3.47
2018-07-17T16:36:57.898Z,3.00
2018-07-17T16:39:26.524Z,3.13
2018-07-17T16:41:55.181Z,2.20
2018-07-17T16:44:23.865Z,2.70
2018-07-17T16:46:52.524Z,5.07
2018-07-17T16:49:21.252Z,4.97
2018-07-17T16:51:49.831Z,2.47
2018-07-17T16:54:18.657Z,3.30
2018-07-17T16:56:47.331Z,2.80
2018-07-17T16:59:15.997Z,3.40
2018-07-17T17:01:44.570Z,3.03
2018-07-17T17:04:13.209Z,2.50
2018-07-17T17:06:41.875Z,3.87
2018-07-17T17:09:11.803Z,2.47
2018-07-17T17:11:40.346Z,3.70
2018-07-17T17:14:09.492Z,2.33
2018-07-17T17:16:38.375Z,2.40
2018-07-17T17:19:07.048Z,2.87
2018-07-17T17:21:35.753Z,2.90
2018-07-17T17:24:04.599Z,2.57
2018-07-17T17:26:32.680Z,4.40
2018-07-17T17:29:01.315Z,2.50
2018-07-17T17:31:30.020Z,2.30
2018-07-17T17:33:58.832Z,3.33
2018-07-17T17:36:27.426Z,6.10
2018-07-17T17:38:56.072Z,4.10
2018-07-17T17:41:24.762Z,2.50
2018-07-17T17:43:53.658Z,3.03
2018-07-17T17:46:22.277Z,3.37
2018-07-17T17:48:50.928Z,2.47
2018-07-17T17:51:19.504Z,2.50
2018-07-17T17:53:48.215Z,2.30
2018-07-17T17:56:17.482Z,2.57
2018-07-17T17:58:47.167Z,3.40
2018-07-17T18:01:15.849Z,2.80
2018-07-17T18:03:44.428Z,2.30
2018-07-17T18:06:13.069Z,7.40
2018-07-17T18:08:41.884Z,3.50
2018-07-17T18:11:12.277Z,5.40
2018-07-17T18:13:41.059Z,3.03
2018-07-17T18:16:09.430Z,2.93
2018-07-17T18:18:38.413Z,3.50
2018-07-17T18:21:07.668Z,3.23
2018-07-17T18:23:36.885Z,3.53
2018-07-17T18:26:06.386Z,4.53
2018-07-17T18:28:35.661Z,4.20
2018-07-17T18:31:05.175Z,3.47
2018-07-17T18:33:34.014Z,3.20
2018-07-17T18:36:03.337Z,3.30
2018-07-17T18:38:32.990Z,4.77
2018-07-17T18:41:02.339Z,3.03
2018-07-17T18:43:32.026Z,3.53
2018-07-17T18:46:01.581Z,3.17
2018-07-17T18:48:31.248Z,6.50
2018-07-17T18:51:01.303Z,3.00
2018-07-17T18:53:30.996Z,4.80
2018-07-17T18:56:02.679Z,4.67
2018-07-17T18:58:32.076Z,2.90
2018-07-17T19:01:02.557Z,6.87
2018-07-17T19:03:31.993Z,10.47
2018-07-17T19:06:01.637Z,3.20
2018-07-17T19:08:31.389Z,2.20
2018-07-17T19:11:00.980Z,2.77
2018-07-17T19:13:30.864Z,2.90
2018-07-17T19:16:00.466Z,9.10
2018-07-17T19:18:29.994Z,3.90
2018-07-17T19:21:00.489Z,5.97
2018-07-17T19:23:30.243Z,4.13
2018-07-17T19:26:00.379Z,2.87
2018-07-17T19:28:29.903Z,3.80
2018-07-17T19:30:59.642Z,3.57
2018-07-17T19:33:29.754Z,3.13
2018-07-17T19:35:59.083Z,2.70
2018-07-17T19:38:28.422Z,2.83
2018-07-17T19:40:57.958Z,3.33
2018-07-17T19:43:27.195Z,3.53
2018-07-17T19:45:59.194Z,3.50
2018-07-17T19:48:28.799Z,2.83
2018-07-17T19:50:58.844Z,2.40
2018-07-17T19:53:28.654Z,3.43
2018-07-17T19:55:59.151Z,4.30
2018-07-17T19:58:28.795Z,2.60
2018-07-17T20:00:57.789Z,2.53
2018-07-17T20:03:27.192Z,3.87
2018-07-17T20:05:56.579Z,2.53
2018-07-17T20:08:25.998Z,2.70
2018-07-17T20:10:55.232Z,6.97
2018-07-17T20:13:24.436Z,3.60
2018-07-17T20:15:53.871Z,2.63
2018-07-17T20:18:23.151Z,3.00
2018-07-17T20:20:53.292Z,3.30
2018-07-17T20:23:22.263Z,8.03
2018-07-17T20:25:51.689Z,3.53
2018-07-17T20:28:20.569Z,2.80
2018-07-17T20:30:49.694Z,3.97
2018-07-17T20:33:18.579Z,2.40
2018-07-17T20:35:47.027Z,2.87
2018-07-17T20:38:16.014Z,2.90
2018-07-17T20:40:45.010Z,4.07
2018-07-17T20:43:14.010Z,2.23
2018-07-17T20:45:42.384Z,2.30
2018-07-17T20:48:11.395Z,2.57
2018-07-17T20:50:40.484Z,2.10
2018-07-17T20:53:09.950Z,2.40
2018-07-17T20:55:38.373Z,7.73
2018-07-17T20:58:07.272Z,2.47
2018-07-17T21:00:36.058Z,2.37
2018-07-17T21:03:04.867Z,2.27
2018-07-17T21:05:33.551Z,2.27
2018-07-17T21:08:02.198Z,3.43
2018-07-17T21:10:30.898Z,2.07
2018-07-17T21:12:59.566Z,2.33
2018-07-17T21:15:27.803Z,3.13
2018-07-17T21:17:56.380Z,2.43
2018-07-17T21:20:24.969Z,3.53
2018-07-17T21:22:53.516Z,2.50
2018-07-17T21:25:22.844Z,2.90
2018-07-17T21:27:51.474Z,2.47
2018-07-17T21:30:20.070Z,4.60
2018-07-17T21:32:48.604Z,3.13
2018-07-17T21:35:16.826Z,2.60
2018-07-17T21:37:45.338Z,2.50
2018-07-17T21:40:13.897Z,8.70
2018-07-17T21:42:42.421Z,1.97
2018-07-17T21:45:10.677Z,2.40
2018-07-17T21:47:39.323Z,3.20
2018-07-17T21:50:08.143Z,2.63
2018-07-17T21:52:36.691Z,3.63
2018-07-17T21:55:04.996Z,7.50
2018-07-17T21:57:33.588Z,3.37
2018-07-17T22:00:02.091Z,5.03
2018-07-17T22:02:30.646Z,4.07
2018-07-17T22:04:59.155Z,3.93
2018-07-17T22:07:28.212Z,2.80
2018-07-17T22:09:56.479Z,2.40
2018-07-17T22:12:25.117Z,4.27
2018-07-17T22:14:53.597Z,2.23
2018-07-17T22:17:22.186Z,2.50
2018-07-17T22:19:50.648Z,2.73
2018-07-17T22:22:19.231Z,2.57
2018-07-17T22:24:47.827Z,4.40
2018-07-17T22:27:16.332Z,3.67
2018-07-17T22:29:44.920Z,2.43
2018-07-17T22:32:13.509Z,2.60
2018-07-17T22:34:41.981Z,3.00
2018-07-17T22:37:10.838Z,3.20
2018-07-17T22:39:39.376Z,2.57
2018-07-17T22:42:07.963Z,3.00
2018-07-17T22:44:36.552Z,4.30
2018-07-17T22:47:05.042Z,2.97
2018-07-17T22:49:33.520Z,2.77
2018-07-17T22:52:02.079Z,2.50
2018-07-17T22:54:30.701Z,2.40
2018-07-17T22:56:59.146Z,3.47
2018-07-17T22:59:27.627Z,3.63
2018-07-17T23:01:56.154Z,2.20
2018-07-17T23:04:24.684Z,3.13
2018-07-17T23:06:53.166Z,3.27
2018-07-17T23:09:21.711Z,1.77
2018-07-17T23:11:50.176Z,2.80
2018-07-17T23:14:19.711Z,2.80
2018-07-17T23:16:48.154Z,2.60
2018-07-17T23:19:16.692Z,5.40
2018-07-17T23:21:45.154Z,6.63
2018-07-17T23:24:13.649Z,4.30
2018-07-17T23:26:42.141Z,3.03
2018-07-17T23:29:10.621Z,2.30
2018-07-17T23:31:39.125Z,2.47
2018-07-17T23:34:07.558Z,2.30
2018-07-17T23:36:35.726Z,4.87
2018-07-17T23:39:05.659Z,2.47
2018-07-17T23:41:34.789Z,3.70
2018-07-17T23:44:03.350Z,2.23
2018-07-17T23:46:32.093Z,3.37
2018-07-17T23:49:00.607Z,7.83
2018-07-17T23:51:28.822Z,3.23
2018-07-17T23:53:56.970Z,4.53
2018-07-17T23:56:25.449Z,3.00
2018-07-17T23:58:53.988Z,2.50
